»·PEaware :: N49CB KPSP-KSNA

N49CB :: KPSP-KSNA

FLIGHT INFORMATION

Flight Status: Arrived
Operator: Privately registered:
United States
More flights under this callsign
Pilot: Anonymous 10623 (10623)
Aircraft: CESSNA 337 TURBO SKYMASTER
(C337)
More flights by this aircraft type
Origin: KPSP Palm Springs Intl
United States
Destination: KSNA John Wayne-Orange Co
United States
More flights between these airports :: More routes between these airports
Route: CATH1 PSP V388 PDZ PDZ270/013 V363 POXKU V8 SLI
File this flight plan on PilotEdge
Remarks: TEC route PSPP18
Altitude:
(Current/Filed)
10,000ft
Speed:
(Current/Filed)
160kts
Departed: 16-Jan-22 11:35 AM
Arrived: 16-Jan-22 12:23 PM
Distance/Time
Traveled:
69nm/0:48
Distance/Time
To Go:
Arrived

Flight Plot

Page will automatically refresh every two minutes.

Flight plan parsing failed; only flown route is shown


Map Options




Map Legend


Flown Route
Filed Route
Departure Airport
Arrival Airport
Navaid (VOR, NDB)
Fix

Horizontal Profiles

Position Reports

Time Latitude Longitude Heading Altitude Ground
Speed
16-Jan-22 11:15 33.822817 -116.497064 53 403ft 0kts
16-Jan-22 11:16 33.822817 -116.497064 53 403ft 0kts
16-Jan-22 11:17 33.822817 -116.497064 53 403ft 0kts
16-Jan-22 11:17 33.822817 -116.497064 53 403ft 0kts
16-Jan-22 11:18 33.822817 -116.497064 53 403ft 0kts
16-Jan-22 11:20 33.822817 -116.497064 53 403ft 0kts
16-Jan-22 11:21 33.822817 -116.497064 53 403ft 0kts
16-Jan-22 11:21 33.822817 -116.497064 53 403ft 0kts
16-Jan-22 11:22 33.822817 -116.497064 53 403ft 0kts
16-Jan-22 11:23 33.822817 -116.497064 53 403ft 0kts
16-Jan-22 11:24 33.822817 -116.497064 53 403ft 0kts
16-Jan-22 11:25 33.822818 -116.497062 53 403ft 1kts
16-Jan-22 11:26 33.824381 -116.498811 315 406ft 0kts
16-Jan-22 11:27 33.824382 -116.498811 315 406ft 0kts
16-Jan-22 11:28 33.824382 -116.498811 315 406ft 0kts
16-Jan-22 11:29 33.824659 -116.499520 271 408ft 0kts
16-Jan-22 11:30 33.824659 -116.499520 271 408ft 0kts
16-Jan-22 11:31 33.824659 -116.499520 271 408ft 0kts
16-Jan-22 11:32 33.824659 -116.499520 271 408ft 0kts
16-Jan-22 11:33 33.824675 -116.500317 321 409ft 12kts
16-Jan-22 11:34 33.842587 -116.515819 324 1311ft 99kts
16-Jan-22 11:35 33.864904 -116.538991 319 2703ft 109kts
16-Jan-22 11:36 33.888356 -116.562019 323 3989ft 106kts
16-Jan-22 11:37 33.908924 -116.553820 97 5000ft 115kts
16-Jan-22 11:38 33.898116 -116.518098 113 6129ft 113kts
16-Jan-22 11:39 33.887256 -116.480884 114 7115ft 123kts
16-Jan-22 11:40 33.874746 -116.443728 116 8206ft 119kts
16-Jan-22 11:41 33.859994 -116.407761 117 9164ft 121kts
16-Jan-22 11:42 33.845686 -116.370269 99 9935ft 132kts
16-Jan-22 11:43 33.873290 -116.356172 309 9815ft 150kts
16-Jan-22 11:44 33.879986 -116.403379 264 9863ft 145kts
16-Jan-22 11:45 33.889218 -116.449678 290 9900ft 144kts
16-Jan-22 11:46 33.902042 -116.495129 289 9895ft 144kts
16-Jan-22 11:47 33.914740 -116.540771 281 9953ft 146kts
16-Jan-22 11:48 33.920174 -116.579202 277 9882ft 152kts
16-Jan-22 11:49 33.927933 -116.629038 280 9989ft 149kts
16-Jan-22 11:50 33.935258 -116.679870 279 9886ft 158kts
16-Jan-22 11:51 33.943571 -116.731073 281 9898ft 153kts
16-Jan-22 11:52 33.945319 -116.782544 268 9884ft 154kts
16-Jan-22 11:53 33.944817 -116.833662 268 9956ft 152kts
16-Jan-22 11:54 33.943639 -116.885261 266 9922ft 151kts
16-Jan-22 11:55 33.942205 -116.936512 266 9273ft 157kts
16-Jan-22 11:56 33.941671 -116.989865 269 8384ft 160kts
16-Jan-22 11:57 33.940838 -117.044141 269 7532ft 160kts
16-Jan-22 11:58 33.939181 -117.098285 264 6634ft 161kts
16-Jan-22 11:59 33.936823 -117.152117 268 5871ft 162kts
16-Jan-22 12:00 33.935804 -117.202744 266 5958ft 146kts
16-Jan-22 12:01 33.935880 -117.252460 273 5911ft 152kts
16-Jan-22 12:02 33.937368 -117.302855 262 5851ft 150kts
16-Jan-22 12:03 33.929414 -117.351114 257 5959ft 143kts
16-Jan-22 12:04 33.921740 -117.398673 261 6019ft 143kts
16-Jan-22 12:05 33.919660 -117.447083 269 6001ft 149kts
16-Jan-22 12:06 33.921246 -117.496068 259 6035ft 148kts
16-Jan-22 12:07 33.921599 -117.545507 283 6023ft 150kts
16-Jan-22 12:08 33.933045 -117.594942 284 5924ft 152kts
16-Jan-22 12:09 33.943643 -117.643966 285 5921ft 151kts
16-Jan-22 12:10 33.954575 -117.692661 284 5914ft 151kts
16-Jan-22 12:11 33.965499 -117.741948 284 5316ft 151kts
16-Jan-22 12:12 33.969678 -117.790673 229 4203ft 151kts
16-Jan-22 12:13 33.934735 -117.785235 162 3939ft 138kts
16-Jan-22 12:14 33.896362 -117.783561 178 3987ft 138kts
16-Jan-22 12:15 33.857678 -117.782648 184 3991ft 139kts
16-Jan-22 12:16 33.817076 -117.781186 178 3402ft 150kts
16-Jan-22 12:17 33.784695 -117.799673 211 2698ft 123kts
16-Jan-22 12:18 33.755296 -117.820626 202 1756ft 116kts
16-Jan-22 12:19 33.729409 -117.835970 210 1181ft 98kts
16-Jan-22 12:20 33.706314 -117.849940 207 704ft 85kts
16-Jan-22 12:21 33.685530 -117.862715 207 178ft 82kts
16-Jan-22 12:22 33.674297 -117.870881 290 46ft 1kts
16-Jan-22 12:23 33.672599 -117.872271 209 46ft 16kts
16-Jan-22 12:24 33.672348 -117.873383 212 45ft 0kts
16-Jan-22 12:25 33.672348 -117.873383 212 45ft 0kts
16-Jan-22 12:26 33.672348 -117.873383 212 45ft 0kts

Navigation Log

Ident Type
Flight plan parsing failed, navigation log unavailable